Time;durP1;ratioP1;P1;durP2;ratioP2;P2;SDS_P1;SDS_P2;PMS_P1;PMS_P2;Temp;Humidity;BMP_temperature;BMP_pressure;BME280_temperature;BME280_humidity;BME280_pressure;Samples;Min_cycle;Max_cycle;Signal;HPM_P1;HPM_P2
2021/12/14 00:01:54;;;;;;;;;19.75;16.25;;;;;7.81;73.57;102006.38;5057039;28;45345;-61
2021/12/14 00:04:29;;;;;;;;;22.00;19.25;;;;;7.81;73.50;102012.47;5056384;28;45856;-61
2021/12/14 00:06:55;;;;;;;;;27.75;19.25;;;;;7.82;73.29;102008.94;5038660;28;45285;-62
2021/12/14 00:09:27;;;;;;;;;29.50;26.75;;;;;7.83;73.17;102008.00;5056776;28;45299;-61
2021/12/14 00:12:12;;;;;;;;;28.00;22.75;;;;;7.82;73.25;102008.06;5056690;28;46398;-61
2021/12/14 00:17:12;;;;;;;;;31.25;26.75;;;;;7.79;72.89;101996.00;5056838;28;45458;-61
2021/12/14 00:19:39;;;;;;;;;28.25;20.75;;;;;7.77;73.03;101983.91;5038754;28;45446;-61
2021/12/14 00:22:20;;;;;;;;;29.00;21.50;;;;;7.73;72.87;101989.31;5038649;28;45443;-61
2021/12/14 00:24:46;;;;;;;;;23.25;20.00;;;;;7.72;72.91;101995.47;5056372;28;45397;-61
2021/12/14 00:27:12;;;;;;;;;21.75;15.75;;;;;7.72;72.95;101997.25;5055850;28;64410;-61
2021/12/14 00:29:44;;;;;;;;;19.50;18.75;;;;;7.72;73.08;101992.03;5056808;28;45539;-62
2021/12/14 00:32:13;;;;;;;;;24.00;17.50;;;;;7.72;73.03;101992.03;5056703;28;46515;-61
2021/12/14 00:34:43;;;;;;;;;22.25;19.00;;;;;7.75;73.14;101998.84;5038947;28;45837;-61
2021/12/14 00:37:22;;;;;;;;;30.25;23.25;;;;;7.75;73.27;101997.09;5056304;28;45412;-62
2021/12/14 00:39:47;;;;;;;;;20.25;18.75;;;;;7.76;73.17;101993.56;5056448;28;45293;-61
2021/12/14 00:42:13;;;;;;;;;29.00;19.50;;;;;7.78;73.23;101991.69;5056300;28;46446;-62
2021/12/14 00:44:38;;;;;;;;;24.75;21.00;;;;;7.76;73.34;101990.94;5055493;28;68423;-62
2021/12/14 00:47:03;;;;;;;;;26.25;21.75;;;;;7.77;73.68;101995.25;5055687;28;62743;-62
2021/12/14 00:49:29;;;;;;;;;24.25;20.50;;;;;7.76;73.38;101990.94;5056481;28;45250;-61
2021/12/14 00:51:55;;;;;;;;;28.50;22.75;;;;;7.79;73.33;101989.91;5056132;28;45801;-62
2021/12/14 00:54:20;;;;;;;;;23.50;21.00;;;;;7.78;73.28;101996.94;5038405;28;45383;-62
2021/12/14 00:56:46;;;;;;;;;23.50;20.50;;;;;7.79;73.37;102008.22;5056432;28;45997;-61
2021/12/14 00:59:13;;;;;;;;;21.75;17.50;;;;;7.78;73.32;101999.56;5056130;28;45591;-62
2021/12/14 01:01:44;;;;;;;;;25.00;21.75;;;;;7.78;73.42;102002.16;5037256;28;45366;-61
2021/12/14 01:04:15;;;;;;;;;23.50;20.00;;;;;7.78;73.49;102002.16;5038393;28;45282;-61
2021/12/14 01:06:45;;;;;;;;;26.25;23.00;;;;;7.79;73.19;102008.22;5038457;28;45405;-61
2021/12/14 01:09:12;;;;;;;;;33.75;24.00;;;;;7.81;73.33;102009.00;5038786;28;45544;-61
2021/12/14 01:11:42;;;;;;;;;22.25;20.00;;;;;7.80;73.25;102002.06;5055149;28;46357;-61
2021/12/14 01:14:11;;;;;;;;;24.00;23.25;;;;;7.80;73.18;102009.94;5056087;28;45366;-62
2021/12/14 01:16:54;;;;;;;;;28.75;20.75;;;;;7.80;73.12;102007.31;5039841;28;45222;-62
2021/12/14 01:19:28;;;;;;;;;24.00;20.25;;;;;7.80;73.16;101995.09;5043719;28;45229;-61
2021/12/14 01:22:14;;;;;;;;;29.50;22.75;;;;;7.80;73.11;101994.22;5059019;28;45647;-62
2021/12/14 01:25:01;;;;;;;;;30.50;26.75;;;;;7.79;73.16;102014.31;5059743;28;45827;-61
2021/12/14 01:27:55;;;;;;;;;32.00;22.00;;;;;7.81;73.18;102038.66;5059649;28;45329;-61
2021/12/14 01:31:14;;;;;;;;;35.25;22.75;;;;;7.79;73.19;102027.41;5059101;28;45278;-61
2021/12/14 01:33:35;;;;;;;;;31.50;26.25;;;;;7.81;73.18;102038.66;5043898;28;45348;-61
2021/12/14 01:36:07;;;;;;;;;27.75;24.25;;;;;7.82;73.17;102039.47;5041432;28;45233;-61
2021/12/14 01:38:35;;;;;;;;;34.25;26.00;;;;;7.83;73.08;102039.41;5059311;28;45281;-61
2021/12/14 01:41:05;;;;;;;;;32.50;23.25;;;;;7.83;73.07;102052.50;5041464;28;45236;-60
2021/12/14 01:43:40;;;;;;;;;33.75;24.25;;;;;7.85;73.16;102063.72;5024729;28;46022;-62
2021/12/14 01:46:14;;;;;;;;;29.75;24.25;;;;;7.87;73.32;102068.88;5059034;28;45383;-61
2021/12/14 01:48:39;;;;;;;;;35.50;30.75;;;;;7.90;73.07;102062.66;5041986;28;45515;-62
2021/12/14 01:51:06;;;;;;;;;33.75;25.25;;;;;7.91;72.83;102065.16;5059101;28;45438;-61
2021/12/14 01:53:31;;;;;;;;;29.50;27.00;;;;;7.91;72.98;102059.94;5058979;28;46067;-62
2021/12/14 01:55:59;;;;;;;;;35.25;27.50;;;;;7.91;73.24;102064.34;5059134;28;45423;-62
2021/12/14 01:58:26;;;;;;;;;31.25;24.75;;;;;7.93;73.38;102072.94;5041103;28;45386;-61
2021/12/14 02:00:55;;;;;;;;;43.75;31.00;;;;;7.94;72.98;102066.78;5040656;28;45325;-61
2021/12/14 02:03:21;;;;;;;;;37.50;28.50;;;;;7.96;73.05;102072.75;5058708;28;46168;-61
2021/12/14 02:05:48;;;;;;;;;49.25;33.50;;;;;7.98;72.99;102084.84;5058769;28;45309;-61
2021/12/14 02:08:25;;;;;;;;;37.75;30.25;;;;;7.99;72.99;102090.91;5058883;28;45321;-62
2021/12/14 02:10:50;;;;;;;;;38.75;29.25;;;;;8.00;72.86;102095.22;5058802;28;45191;-62
2021/12/14 02:13:27;;;;;;;;;34.75;29.75;;;;;8.00;73.01;102103.09;5040484;28;47210;-61
2021/12/14 02:15:53;;;;;;;;;38.75;31.75;;;;;7.99;73.13;102109.25;5040908;28;45800;-62
2021/12/14 02:18:19;;;;;;;;;33.00;29.75;;;;;7.98;72.99;102116.28;5058734;28;45458;-62
2021/12/14 02:20:55;;;;;;;;;43.00;34.00;;;;;7.96;73.04;102115.50;5058482;28;45592;-62
2021/12/14 02:23:21;;;;;;;;;45.25;32.00;;;;;7.94;72.99;102108.66;5058419;28;46390;-62
2021/12/14 02:25:47;;;;;;;;;44.00;31.75;;;;;7.94;72.96;102100.81;5058217;28;45388;-61
2021/12/14 02:28:17;;;;;;;;;37.50;28.25;;;;;7.93;73.31;102091.28;5057628;28;45450;-61
2021/12/14 02:30:42;;;;;;;;;32.75;29.25;;;;;7.92;73.26;102090.41;5058382;28;45557;-61
2021/12/14 02:33:25;;;;;;;;;35.75;31.25;;;;;7.94;73.22;102085.13;5058391;28;46504;-61
2021/12/14 02:35:51;;;;;;;;;36.75;27.50;;;;;7.94;73.25;102065.00;5058155;28;45920;-62
2021/12/14 02:38:17;;;;;;;;;31.50;27.75;;;;;7.94;73.22;102048.47;5040290;28;45256;-62
2021/12/14 02:40:54;;;;;;;;;28.75;25.00;;;;;7.92;73.26;102050.31;5057150;28;45530;-61
2021/12/14 02:43:43;;;;;;;;;26.50;22.25;;;;;7.91;73.18;102048.63;5058216;28;46175;-62
2021/12/14 02:46:26;;;;;;;;;21.25;19.00;;;;;7.94;73.30;102061.56;5040217;28;46018;-60
2021/12/14 02:48:54;;;;;;;;;28.75;24.00;;;;;7.95;73.25;102071.94;5058151;28;45450;-62
2021/12/14 02:51:35;;;;;;;;;24.00;21.00;;;;;7.96;73.14;102068.38;5058140;28;45555;-62
2021/12/14 02:54:06;;;;;;;;;27.75;23.25;;;;;7.96;73.29;102063.16;5058023;28;45518;-62
2021/12/14 02:56:32;;;;;;;;;23.50;21.00;;;;;7.97;73.05;102063.97;5058032;28;45786;-61
2021/12/14 02:59:00;;;;;;;;;30.50;23.50;;;;;7.97;73.07;102071.84;5057987;28;45407;-62
2021/12/14 03:01:25;;;;;;;;;29.25;21.75;;;;;7.97;73.06;102064.84;5058029;28;45573;-62
2021/12/14 03:03:51;;;;;;;;;25.25;21.25;;;;;7.97;73.04;102054.38;5057748;28;45452;-61
2021/12/14 03:06:21;;;;;;;;;30.75;21.75;;;;;7.98;73.03;102047.34;5057793;28;45339;-61
2021/12/14 03:08:56;;;;;;;;;23.75;22.00;;;;;7.99;72.96;102049.03;5057981;28;45269;-60
2021/12/14 03:11:22;;;;;;;;;22.25;19.50;;;;;7.99;73.02;102052.53;5057741;28;45224;-62
2021/12/14 03:13:48;;;;;;;;;22.75;19.25;;;;;8.00;72.89;102043.75;5057639;28;46471;-61
2021/12/14 03:16:25;;;;;;;;;24.25;21.75;;;;;7.99;72.90;102025.47;5057658;28;45244;-61
2021/12/14 03:18:50;;;;;;;;;26.00;18.75;;;;;7.97;73.04;102019.50;5057846;28;45558;-61
2021/12/14 03:21:39;;;;;;;;;22.00;17.50;;;;;7.97;72.81;102007.25;5056706;28;65213;-62
2021/12/14 03:24:13;;;;;;;;;22.25;16.00;;;;;7.97;72.68;102011.63;5057563;28;46114;-61
2021/12/14 03:26:41;;;;;;;;;26.00;20.00;;;;;7.98;72.85;102029.03;5022949;28;45436;-60
2021/12/14 03:29:10;;;;;;;;;27.75;16.50;;;;;7.98;72.97;102023.78;5039732;28;45440;-62
2021/12/14 03:31:44;;;;;;;;;19.75;18.25;;;;;8.01;72.55;102024.50;5039601;28;45554;-61
2021/12/14 03:34:18;;;;;;;;;19.75;18.25;;;;;8.00;72.49;102029.78;5056286;28;45317;-62
2021/12/14 03:36:54;;;;;;;;;22.75;18.25;;;;;8.00;72.47;102022.81;5057395;28;46132;-62
2021/12/14 03:39:22;;;;;;;;;19.75;15.50;;;;;8.01;72.43;102034.09;5057260;28;45440;-61
2021/12/14 03:41:50;;;;;;;;;19.25;16.50;;;;;8.01;72.22;102032.34;5039729;28;45290;-61
2021/12/14 03:44:23;;;;;;;;;18.00;16.25;;;;;7.99;72.00;102023.72;5057181;28;45563;-61
2021/12/14 03:46:54;;;;;;;;;15.00;12.00;;;;;7.98;71.98;102014.19;5057188;28;45923;-62
2021/12/14 03:49:21;;;;;;;;;20.75;17.25;;;;;7.98;72.22;102015.94;5057207;28;45395;-62
2021/12/14 03:51:46;;;;;;;;;18.50;14.00;;;;;7.97;72.21;102019.50;5057251;28;45494;-61
2021/12/14 03:54:14;;;;;;;;;13.75;11.50;;;;;7.96;72.14;102020.41;5057029;28;45411;-61
2021/12/14 03:56:39;;;;;;;;;18.50;12.75;;;;;7.96;72.05;102030.88;5057024;28;45427;-62
2021/12/14 03:59:05;;;;;;;;;15.50;13.50;;;;;7.95;72.15;102016.97;5056629;28;53164;-61
2021/12/14 04:01:33;;;;;;;;;20.75;15.75;;;;;7.94;71.85;102009.22;5057090;28;45459;-61
2021/12/14 04:04:02;;;;;;;;;18.00;15.25;;;;;7.91;71.86;101996.28;5038557;28;46000;-61
2021/12/14 04:06:28;;;;;;;;;16.25;13.00;;;;;7.90;71.59;101994.59;5038906;28;45932;-61
2021/12/14 04:08:53;;;;;;;;;22.50;15.00;;;;;7.87;71.65;101993.84;5056125;28;66683;-61
2021/12/14 04:11:19;;;;;;;;;20.75;15.00;;;;;7.87;71.78;102006.91;5039001;28;45324;-60
2021/12/14 04:13:47;;;;;;;;;22.75;18.75;;;;;7.88;71.76;102007.75;5056806;28;46117;-61
2021/12/14 04:16:15;;;;;;;;;18.25;15.50;;;;;7.87;71.92;102006.91;5056971;28;45874;-62
2021/12/14 04:18:40;;;;;;;;;15.50;15.50;;;;;7.87;71.82;102004.31;5056930;28;45446;-62
2021/12/14 04:21:05;;;;;;;;;21.75;20.75;;;;;7.90;71.81;102010.31;5038162;28;55785;-61
2021/12/14 04:23:33;;;;;;;;;21.75;20.00;;;;;7.89;71.53;102014.69;5056504;28;47571;-62
2021/12/14 04:25:59;;;;;;;;;22.00;19.00;;;;;7.88;71.86;102028.69;5056532;28;45881;-61
2021/12/14 04:28:29;;;;;;;;;26.50;19.75;;;;;7.89;71.69;102038.22;5038827;28;45421;-62
2021/12/14 04:30:54;;;;;;;;;24.75;19.75;;;;;7.87;71.70;102030.47;5056778;28;45474;-62
2021/12/14 04:33:26;;;;;;;;;25.00;20.75;;;;;7.85;71.63;102037.56;5055571;28;72370;-62
2021/12/14 04:35:52;;;;;;;;;26.00;19.00;;;;;7.83;71.96;102039.41;5022108;28;45397;-61
2021/12/14 04:38:26;;;;;;;;;26.00;20.25;;;;;7.82;71.96;102039.47;5056544;28;45379;-62
2021/12/14 04:52:00;;;;;;;;;24.25;20.00;;;;;7.73;71.93;102035.59;5041210;28;45401;-61
2021/12/14 04:54:43;;;;;;;;;26.25;21.50;;;;;7.71;72.03;102040.03;5037965;28;46587;-62
2021/12/14 04:57:22;;;;;;;;;28.00;21.50;;;;;7.70;72.24;102030.50;5038769;28;47314;-61
2021/12/14 04:59:48;;;;;;;;;27.00;22.50;;;;;7.70;72.26;102033.13;5056210;28;45223;-62
2021/12/14 05:02:16;;;;;;;;;27.50;22.00;;;;;7.70;72.13;102027.88;5055322;28;66482;-62
2021/12/14 05:04:42;;;;;;;;;27.50;22.75;;;;;7.70;72.12;102031.34;5055921;28;45500;-63
2021/12/14 05:09:52;;;;;;;;;29.00;23.00;;;;;7.68;72.25;102038.41;5056213;28;45361;-61
2021/12/14 05:12:23;;;;;;;;;23.50;20.75;;;;;7.66;72.16;102034.22;5056252;28;45420;-62
2021/12/14 05:14:48;;;;;;;;;22.00;20.00;;;;;7.68;72.19;102040.22;5055992;28;49008;-61
2021/12/14 05:17:19;;;;;;;;;23.50;17.50;;;;;7.69;72.03;102044.50;5055727;28;50217;-61
2021/12/14 05:19:45;;;;;;;;;29.25;22.25;;;;;7.69;72.18;102040.09;5038072;28;45265;-62
2021/12/14 05:22:13;;;;;;;;;27.00;22.00;;;;;7.69;72.02;102036.66;5038114;28;45293;-61
2021/12/14 05:24:40;;;;;;;;;24.75;19.50;;;;;7.68;72.16;102037.59;5037983;28;46324;-61
2021/12/14 05:27:07;;;;;;;;;27.00;21.75;;;;;7.68;72.01;102034.97;5055612;28;46111;-61
2021/12/14 05:29:33;;;;;;;;;23.50;20.25;;;;;7.66;72.27;102032.44;5055894;28;45412;-61
2021/12/14 05:31:59;;;;;;;;;27.00;22.00;;;;;7.66;72.17;102029.84;5055744;28;45537;-61
2021/12/14 05:34:25;;;;;;;;;23.00;19.50;;;;;7.68;72.44;102041.03;5055678;28;48024;-61
2021/12/14 05:36:51;;;;;;;;;29.75;24.75;;;;;7.70;72.28;102040.97;5037690;28;45262;-61
2021/12/14 05:44:13;;;;;;;;;26.00;21.00;;;;;7.70;72.20;102026.09;5055416;28;46072;-62
2021/12/14 05:46:39;;;;;;;;;26.00;21.75;;;;;7.72;72.38;102034.72;5036962;28;45832;-61
2021/12/14 05:49:08;;;;;;;;;24.25;20.50;;;;;7.73;72.09;102040.81;5037833;28;45388;-61
2021/12/14 05:51:33;;;;;;;;;31.25;24.00;;;;;7.73;72.12;102041.63;5055073;28;45321;-60
2021/12/14 05:53:59;;;;;;;;;28.25;22.00;;;;;7.73;72.46;102035.59;5037528;28;45456;-61
2021/12/14 05:56:24;;;;;;;;;29.25;24.50;;;;;7.74;72.30;102039.88;5055302;28;45587;-60
2021/12/14 05:58:50;;;;;;;;;29.75;24.00;;;;;7.74;72.34;102045.13;5055537;28;45490;-60
2021/12/14 06:01:18;;;;;;;;;23.00;22.00;;;;;7.74;72.37;102052.97;5037463;28;45590;-61
2021/12/14 06:03:49;;;;;;;;;30.25;23.75;;;;;7.77;72.31;102054.56;5056854;28;46532;-60
2021/12/14 06:06:17;;;;;;;;;26.75;22.50;;;;;7.78;72.27;102058.88;5041299;28;46023;-61
2021/12/14 06:08:42;;;;;;;;;30.50;26.25;;;;;7.77;72.39;102059.81;5058778;28;45326;-61
2021/12/14 06:11:09;;;;;;;;;29.00;25.00;;;;;7.77;72.29;102057.19;5058588;28;45474;-61
2021/12/14 06:13:42;;;;;;;;;28.75;24.00;;;;;7.76;72.45;102068.56;5058449;28;46165;-60
2021/12/14 06:16:08;;;;;;;;;25.00;22.00;;;;;7.75;72.34;102072.97;5058504;28;45907;-61
2021/12/14 06:18:34;;;;;;;;;29.00;22.00;;;;;7.73;72.22;102075.66;5058531;28;45402;-61
2021/12/14 06:21:00;;;;;;;;;27.50;23.25;;;;;7.70;72.24;102080.22;5058557;28;45170;-61
2021/12/14 06:23:26;;;;;;;;;25.50;20.50;;;;;7.67;72.45;102080.38;5058279;28;47015;-61
2021/12/14 06:25:52;;;;;;;;;24.00;21.00;;;;;7.65;72.38;102080.47;5058165;28;45312;-61
2021/12/14 06:28:25;;;;;;;;;26.75;20.50;;;;;7.63;72.28;102086.69;5040231;28;45277;-60
2021/12/14 06:30:50;;;;;;;;;22.25;20.25;;;;;7.60;72.30;102099.91;5058357;28;45470;-61
2021/12/14 06:33:15;;;;;;;;;20.00;17.75;;;;;7.57;72.27;102095.69;5057443;28;68946;-60
2021/12/14 06:35:46;;;;;;;;;26.75;20.50;;;;;7.53;72.38;102094.16;5058117;28;50076;-61
2021/12/14 06:38:28;;;;;;;;;23.00;19.00;;;;;7.49;72.58;102092.63;5058372;28;45439;-61
2021/12/14 06:41:15;;;;;;;;;18.00;15.75;;;;;7.47;72.54;102102.31;5039920;28;45299;-61
2021/12/14 06:43:54;;;;;;;;;19.75;16.00;;;;;7.45;72.82;102118.06;5057701;28;46138;-60
2021/12/14 06:46:26;;;;;;;;;24.50;17.75;;;;;7.42;72.71;102116.47;5040216;28;46065;-61
2021/12/14 06:48:53;;;;;;;;;22.25;19.00;;;;;7.41;72.87;102111.31;5058264;28;45282;-61
2021/12/14 06:51:31;;;;;;;;;32.75;26.25;;;;;7.39;73.14;102100.09;5058125;28;45480;-61
2021/12/14 06:53:59;;;;;;;;;26.00;20.25;;;;;7.40;73.12;102100.00;5039981;28;46313;-61
2021/12/14 06:56:26;;;;;;;;;20.75;19.25;;;;;7.44;73.04;102108.53;5057298;28;45882;-61
2021/12/14 06:59:00;;;;;;;;;22.00;17.75;;;;;7.45;73.13;102114.63;5040154;28;45278;-61
2021/12/14 07:01:52;;;;;;;;;19.50;16.50;;;;;7.47;72.92;102118.84;5057689;28;45371;-61
2021/12/14 07:04:20;;;;;;;;;21.00;18.50;;;;;7.49;73.00;102113.53;5057649;28;45580;-61
2021/12/14 07:06:59;;;;;;;;;18.25;17.75;;;;;7.50;73.08;102118.69;5057907;28;45975;-61
2021/12/14 07:09:25;;;;;;;;;18.25;12.50;;;;;7.51;72.97;102117.75;5057708;28;45399;-61
2021/12/14 07:12:08;;;;;;;;;19.25;16.50;;;;;7.53;72.96;102113.31;5057896;28;45336;-61
2021/12/14 07:14:49;;;;;;;;;27.50;20.00;;;;;7.52;73.17;102116.84;5056880;28;50201;-62
2021/12/14 07:17:30;;;;;;;;;24.00;18.00;;;;;7.55;73.03;102115.84;5057586;28;45907;-60
2021/12/14 07:20:45;;;;;;;;;22.00;20.00;;;;;7.55;72.96;102116.69;5057647;28;45235;-62
2021/12/14 07:23:31;;;;;;;;;16.75;15.25;;;;;7.55;73.12;102111.47;5053733;28;45626;-61
2021/12/14 07:26:04;;;;;;;;;22.00;20.00;;;;;7.56;73.02;102115.78;5039465;28;45407;-60
2021/12/14 07:28:38;;;;;;;;;22.75;18.00;;;;;7.57;73.00;102112.22;5057279;28;45831;-60
2021/12/14 07:31:12;;;;;;;;;21.00;18.00;;;;;7.58;73.01;102119.16;5057243;28;45389;-61
2021/12/14 07:33:37;;;;;;;;;17.75;15.00;;;;;7.60;73.04;102120.84;5057207;28;45288;-61
2021/12/14 07:36:12;;;;;;;;;21.75;19.25;;;;;7.59;73.15;102117.41;5038690;28;47759;-61
2021/12/14 07:38:47;;;;;;;;;22.75;20.00;;;;;7.61;73.11;102122.53;5057052;28;45843;-61
2021/12/14 07:41:18;;;;;;;;;24.25;19.75;;;;;7.60;73.01;102121.72;5057232;28;45356;-61
2021/12/14 07:43:51;;;;;;;;;21.50;18.00;;;;;7.62;73.12;102135.56;5057173;28;45430;-61
2021/12/14 07:46:27;;;;;;;;;23.50;18.25;;;;;7.61;73.01;102123.41;5056882;28;45316;-61
2021/12/14 07:48:56;;;;;;;;;24.75;18.25;;;;;7.60;73.13;102123.47;5057131;28;45431;-61
2021/12/14 07:51:23;;;;;;;;;25.00;20.25;;;;;7.60;73.29;102133.94;5057007;28;45262;-61
2021/12/14 07:53:54;;;;;;;;;29.75;20.75;;;;;7.60;73.24;102133.94;5039034;28;45462;-61
2021/12/14 07:56:28;;;;;;;;;22.75;17.25;;;;;7.60;73.34;102147.00;5038703;28;45570;-61
2021/12/14 07:58:54;;;;;;;;;20.25;18.00;;;;;7.61;73.29;102151.31;5056968;28;45360;-61
2021/12/14 08:01:19;;;;;;;;;22.00;19.75;;;;;7.62;73.00;102143.41;5056852;28;45515;-60
2021/12/14 08:03:45;;;;;;;;;22.75;19.50;;;;;7.64;73.38;102140.69;5038280;28;62737;-63
2021/12/14 08:06:13;;;;;;;;;20.00;15.75;;;;;7.64;73.21;102152.03;5056690;28;46349;-61
2021/12/14 08:08:45;;;;;;;;;36.25;31.25;;;;;7.65;73.42;102158.94;5038610;28;45815;-61
2021/12/14 08:14:02;;;;;;;;;30.75;24.75;;;;;7.68;73.34;102173.63;5041187;28;45250;-61
2021/12/14 08:16:41;;;;;;;;;29.00;27.00;;;;;7.68;73.48;102184.94;5038655;28;46522;-61
2021/12/14 08:19:06;;;;;;;;;39.25;29.50;;;;;7.71;73.45;102183.94;5056450;28;45841;-62
2021/12/14 08:21:32;;;;;;;;;47.00;33.50;;;;;7.72;73.45;102183.03;5055631;28;62603;-61
2021/12/14 08:23:59;;;;;;;;;27.25;21.25;;;;;7.74;73.43;102189.03;5055817;28;60729;-61
2021/12/14 08:26:42;;;;;;;;;40.50;30.50;;;;;7.76;73.39;102186.31;5054930;28;45518;-60
2021/12/14 08:29:16;;;;;;;;;33.75;26.75;;;;;7.76;73.45;102187.19;5056275;28;47651;-60
2021/12/14 08:31:47;;;;;;;;;32.25;29.50;;;;;7.77;73.51;102186.25;5056478;28;45378;-60
2021/12/14 08:34:19;;;;;;;;;32.75;26.50;;;;;7.81;73.39;102184.31;5056370;28;45501;-61
2021/12/14 08:36:52;;;;;;;;;30.25;24.25;;;;;7.80;73.38;102186.09;5044625;27;46309;-61
2021/12/14 08:39:25;;;;;;;;;32.75;26.75;;;;;7.81;73.31;102179.94;5047083;27;46037;-61
2021/12/14 08:41:57;;;;;;;;;37.75;26.75;;;;;7.83;73.22;102182.47;5045566;28;45467;-61
2021/12/14 08:44:36;;;;;;;;;32.50;27.50;;;;;7.84;73.48;102187.66;5046181;27;45179;-61
2021/12/14 08:47:06;;;;;;;;;32.00;24.25;;;;;7.87;73.10;102191.88;5067349;27;45509;-61
2021/12/14 08:49:32;;;;;;;;;25.25;22.50;;;;;7.88;73.24;102196.19;5066133;27;45361;-62
2021/12/14 08:51:57;;;;;;;;;31.50;22.25;;;;;7.90;73.34;102196.13;5066715;27;45284;-62
2021/12/14 08:54:26;;;;;;;;;30.75;22.25;;;;;7.90;73.19;102194.34;5073532;27;45375;-60
2021/12/14 08:57:01;;;;;;;;;26.25;25.00;;;;;7.93;73.22;102195.97;5054396;27;46621;-61
2021/12/14 08:59:27;;;;;;;;;31.25;22.25;;;;;7.95;73.11;102208.03;5062225;27;45451;-61
2021/12/14 09:01:53;;;;;;;;;31.75;25.50;;;;;7.96;73.04;102208.88;5063760;27;45530;-61
2021/12/14 09:04:29;;;;;;;;;30.00;24.50;;;;;7.97;73.06;102195.72;5065318;27;45256;-61
2021/12/14 09:06:56;;;;;;;;;26.75;23.50;;;;;7.98;72.97;102180.84;5062643;27;45468;-62
2021/12/14 09:09:22;;;;;;;;;25.25;20.00;;;;;8.01;72.83;102183.31;5064736;27;45342;-61
2021/12/14 09:11:52;;;;;;;;;28.75;24.50;;;;;8.00;72.89;102185.09;5065207;27;45321;-61
2021/12/14 09:14:17;;;;;;;;;29.75;23.25;;;;;8.01;73.07;102191.16;5065907;27;45318;-61
2021/12/14 09:16:45;;;;;;;;;29.50;23.50;;;;;8.03;73.16;102194.53;5062481;27;48819;-61
2021/12/14 09:19:17;;;;;;;;;27.75;23.25;;;;;8.04;73.14;102190.19;5067577;27;45840;-61
2021/12/14 09:21:46;;;;;;;;;28.25;22.75;;;;;8.06;72.96;102207.47;5065363;27;45269;-60
2021/12/14 09:24:14;;;;;;;;;35.25;29.25;;;;;8.09;73.06;102199.47;5044045;28;45709;-61
2021/12/14 09:26:41;;;;;;;;;27.50;24.00;;;;;8.12;72.70;102199.31;5066687;27;45446;-61
2021/12/14 09:29:09;;;;;;;;;28.25;23.50;;;;;8.13;72.70;102194.94;5044523;28;48324;-61
2021/12/14 09:31:37;;;;;;;;;36.00;25.50;;;;;8.14;72.66;102194.84;5064397;27;45390;-61
2021/12/14 09:34:02;;;;;;;;;33.25;28.25;;;;;8.16;72.70;102200.84;5070204;27;45332;-61
2021/12/14 09:36:29;;;;;;;;;32.25;23.75;;;;;8.19;72.64;102202.47;5050247;28;46268;-62
2021/12/14 09:38:57;;;;;;;;;30.25;24.00;;;;;8.21;72.50;102202.41;5069623;27;45668;-59
2021/12/14 09:41:25;;;;;;;;;31.25;24.50;;;;;8.23;72.83;102205.78;5050654;28;45477;-61
2021/12/14 09:43:51;;;;;;;;;32.00;24.50;;;;;8.26;72.76;102208.25;5077106;27;45668;-61
2021/12/14 09:46:17;;;;;;;;;32.00;24.75;;;;;8.28;72.65;102212.47;5057336;27;45387;-61
2021/12/14 09:48:46;;;;;;;;;33.00;23.00;;;;;8.30;72.50;102213.22;5051460;28;46103;-61
2021/12/14 09:51:15;;;;;;;;;36.50;27.00;;;;;8.33;72.50;102222.72;5073501;27;45214;-60
2021/12/14 09:53:43;;;;;;;;;40.00;29.25;;;;;8.33;72.39;102222.72;5051411;28;45476;-61
2021/12/14 09:56:09;;;;;;;;;36.25;30.00;;;;;8.36;72.17;102225.19;5069324;27;45892;-61
2021/12/14 09:58:40;;;;;;;;;32.50;27.25;;;;;8.36;72.13;102227.78;5054139;27;46011;-60
2021/12/14 10:01:17;;;;;;;;;34.25;29.00;;;;;8.38;72.12;102231.19;5068594;27;45445;-62
2021/12/14 10:03:43;;;;;;;;;37.25;26.75;;;;;8.38;71.98;102225.06;5065622;27;45216;-62
2021/12/14 10:06:24;;;;;;;;;38.75;32.50;;;;;8.39;71.91;102222.41;5064562;27;46069;-61
2021/12/14 10:08:52;;;;;;;;;31.50;28.25;;;;;8.41;72.18;102223.16;5072835;27;46130;-61
2021/12/14 10:11:47;;;;;;;;;38.75;30.00;;;;;8.43;71.90;102221.31;5039714;27;45440;-61
2021/12/14 10:14:13;;;;;;;;;32.00;29.50;;;;;8.44;71.81;102224.75;5050542;27;45460;-60
2021/12/14 10:16:38;;;;;;;;;35.75;29.25;;;;;8.44;71.90;102220.38;5067872;27;71645;-62
2021/12/14 10:19:07;;;;;;;;;36.75;28.25;;;;;8.46;71.86;102221.16;5066675;27;70273;-60
2021/12/14 10:21:38;;;;;;;;;36.25;28.25;;;;;8.48;71.83;102226.28;5068474;27;45400;-62
2021/12/14 10:24:04;;;;;;;;;29.75;25.00;;;;;8.52;71.44;102224.38;5068952;27;45530;-62
2021/12/14 10:26:31;;;;;;;;;27.50;25.50;;;;;8.51;71.35;102220.06;5031313;28;46297;-62
2021/12/14 10:28:59;;;;;;;;;30.75;25.50;;;;;8.52;71.53;102222.63;5048706;28;46135;-61
2021/12/14 10:31:35;;;;;;;;;40.75;29.25;;;;;8.54;71.25;102225.16;5033929;28;45298;-61
2021/12/14 10:34:02;;;;;;;;;36.75;28.25;;;;;8.55;71.36;102235.56;5036494;28;45401;-61
2021/12/14 10:36:35;;;;;;;;;44.25;32.00;;;;;8.58;71.49;102234.53;5051813;28;45431;-61
2021/12/14 10:44:25;;;;;;;;;43.00;34.25;;;;;8.65;71.13;102227.22;5063114;28;45376;-61
2021/12/14 10:46:51;;;;;;;;;35.25;31.50;;;;;8.68;70.92;102238.38;5003616;28;46289;-61
2021/12/14 10:49:18;;;;;;;;;32.00;31.00;;;;;8.69;70.87;102234.81;5041560;28;46328;-61
2021/12/14 10:51:45;;;;;;;;;37.75;28.25;;;;;8.69;71.05;102219.09;5040963;28;45451;-60
2021/12/14 10:54:13;;;;;;;;;36.25;28.00;;;;;8.72;71.14;102225.97;5056257;28;45418;-60
2021/12/14 10:56:50;;;;;;;;;33.50;28.50;;;;;8.76;71.37;102223.09;5039899;28;45601;-62
2021/12/14 10:59:17;;;;;;;;;33.25;27.00;;;;;8.80;71.16;102218.50;5057375;28;45431;-61
2021/12/14 11:01:49;;;;;;;;;41.50;31.00;;;;;8.84;71.24;102221.84;5056864;28;45486;-61
2021/12/14 11:04:15;;;;;;;;;37.75;32.25;;;;;8.86;71.24;102214.72;5059221;28;45422;-61
2021/12/14 11:06:44;;;;;;;;;44.75;35.50;;;;;8.89;71.22;102220.66;5064170;28;45371;-61
2021/12/14 11:11:44;;;;;;;;;41.75;33.25;;;;;8.94;71.11;102223.03;5042667;28;45308;-62
2021/12/14 11:14:12;;;;;;;;;53.25;38.50;;;;;8.99;71.17;102225.38;5030318;28;45479;-62
2021/12/14 11:19:32;;;;;;;;;36.25;33.25;;;;;9.03;70.82;102229.53;5030123;28;45461;-62
2021/12/14 11:22:07;;;;;;;;;42.00;35.00;;;;;9.07;70.63;102228.44;5048590;28;45508;-62
2021/12/14 11:24:33;;;;;;;;;52.00;38.75;;;;;9.09;70.75;102228.34;5052963;28;45706;-61
2021/12/14 11:26:59;;;;;;;;;40.75;34.25;;;;;9.11;70.49;102224.72;5067432;27;46467;-61
2021/12/14 11:29:24;;;;;;;;;41.50;35.25;;;;;9.13;70.46;102222.00;5062866;27;68219;-61
2021/12/14 11:31:52;;;;;;;;;45.00;35.50;;;;;9.15;70.53;102225.38;5077342;27;45974;-61
2021/12/14 11:34:29;;;;;;;;;47.50;36.75;;;;;9.18;70.66;102214.72;5058082;27;45415;-60
2021/12/14 11:37:00;;;;;;;;;44.50;35.50;;;;;9.20;70.55;102215.50;5047858;27;46291;-61
2021/12/14 11:39:28;;;;;;;;;49.75;37.75;;;;;9.23;70.28;102219.72;5070066;27;45919;-61
2021/12/14 11:42:04;;;;;;;;;47.00;36.25;;;;;9.27;70.23;102210.75;5083250;27;45422;-60
2021/12/14 11:44:35;;;;;;;;;51.75;38.00;;;;;9.30;70.16;102216.66;5075676;27;45469;-61
2021/12/14 11:47:03;;;;;;;;;48.50;37.50;;;;;9.32;70.11;102211.31;5062922;27;45398;-60
2021/12/14 11:49:49;;;;;;;;;47.25;35.50;;;;;9.31;69.88;102207.00;5081353;27;45387;-61
2021/12/14 11:52:52;;;;;;;;;44.25;37.50;;;;;9.31;69.71;102200.00;5081784;27;45534;-62
2021/12/14 11:55:36;;;;;;;;;48.75;39.00;;;;;9.29;69.67;102203.63;5070883;27;46286;-61
2021/12/14 11:58:10;;;;;;;;;58.50;42.25;;;;;9.30;69.82;102203.56;5070651;27;45439;-63
2021/12/14 12:00:51;;;;;;;;;51.50;41.00;;;;;9.30;69.47;102200.94;5046987;27;45632;-63
2021/12/14 12:03:26;;;;;;;;;54.50;41.75;;;;;9.30;69.35;102202.69;5073446;27;45577;-62
2021/12/14 12:06:05;;;;;;;;;54.75;43.50;;;;;9.30;69.71;102197.44;5072567;27;45313;-62
2021/12/14 12:11:15;;;;;;;;;46.25;36.25;;;;;9.35;69.30;102193.66;5064301;27;45877;-61